Time;durP1;ratioP1;P1;durP2;ratioP2;P2;SDS_P1;SDS_P2;PMS_P1;PMS_P2;Temp;Humidity;BMP_temperature;BMP_pressure;BME280_temperature;BME280_humidity;BME280_pressure;Samples;Min_cycle;Max_cycle;Signal;HPM_P1;HPM_P2
2022/01/31 00:00:04;;;;;;;6.47;3.50;;;25.70;99.90;;;;;;4990533;28;20050;-72
2022/01/31 00:02:32;;;;;;;5.85;3.75;;;25.60;99.90;;;;;;4984649;28;20029;-71
2022/01/31 00:04:59;;;;;;;6.32;3.28;;;25.60;99.90;;;;;;4983491;28;20021;-71
2022/01/31 00:07:26;;;;;;;6.93;3.53;;;25.10;99.90;;;;;;4982952;28;20029;-72
2022/01/31 00:09:53;;;;;;;8.52;3.83;;;25.30;99.90;;;;;;4984216;28;20135;-74
2022/01/31 00:12:23;;;;;;;9.38;4.32;;;25.60;99.90;;;;;;4983631;28;20034;-71
2022/01/31 00:14:53;;;;;;;10.88;3.92;;;25.70;99.90;;;;;;4983683;28;20133;-71
2022/01/31 00:17:21;;;;;;;7.70;4.00;;;25.80;99.90;;;;;;4984281;28;20057;-70
2022/01/31 00:19:48;;;;;;;8.00;3.75;;;25.90;99.90;;;;;;4983185;28;20022;-71
2022/01/31 00:22:15;;;;;;;5.32;3.75;;;25.90;99.90;;;;;;4989530;28;20472;-71
2022/01/31 00:24:42;;;;;;;6.85;3.47;;;26.00;99.90;;;;;;4985872;28;20022;-71
2022/01/31 00:27:10;;;;;;;5.72;3.38;;;26.10;99.90;;;;;;4982963;28;20027;-72
2022/01/31 00:29:38;;;;;;;7.05;3.60;;;26.30;99.90;;;;;;4978286;28;20105;-71
2022/01/31 00:32:06;;;;;;;8.18;3.70;;;26.50;99.90;;;;;;4981841;28;20109;-71
2022/01/31 00:34:33;;;;;;;6.40;3.63;;;26.80;99.90;;;;;;4979389;28;20664;-71
2022/01/31 00:37:01;;;;;;;6.78;3.78;;;27.30;99.90;;;;;;4998577;28;20030;-71
2022/01/31 00:39:28;;;;;;;8.38;3.40;;;27.40;99.90;;;;;;4985225;28;20023;-71
2022/01/31 00:41:56;;;;;;;9.63;4.13;;;27.20;99.90;;;;;;4980710;28;20038;-72
2022/01/31 00:44:36;;;;;;;6.28;3.38;;;27.40;99.90;;;;;;4983510;28;20058;-72
2022/01/31 00:47:15;;;;;;;10.25;4.18;;;27.40;99.90;;;;;;4980731;28;20546;-72
2022/01/31 00:49:49;;;;;;;5.53;3.38;;;27.50;99.90;;;;;;4983897;28;20094;-71
2022/01/31 00:52:17;;;;;;;4.78;3.90;;;27.70;99.90;;;;;;4979685;28;20031;-72
2022/01/31 00:54:45;;;;;;;15.82;5.03;;;27.80;99.90;;;;;;4981966;28;20026;-72
2022/01/31 00:57:12;;;;;;;5.85;3.53;;;27.80;99.90;;;;;;4981679;28;20026;-72
2022/01/31 00:59:40;;;;;;;5.07;3.28;;;28.00;99.90;;;;;;4980669;28;20107;-74
2022/01/31 01:02:07;;;;;;;6.28;3.60;;;27.90;99.90;;;;;;4978891;28;20117;-73
2022/01/31 01:04:34;;;;;;;5.95;3.80;;;28.00;99.90;;;;;;4983019;28;20019;-73
2022/01/31 01:07:02;;;;;;;6.82;3.33;;;27.80;99.90;;;;;;4984484;28;20029;-75
2022/01/31 01:09:29;;;;;;;10.75;4.10;;;28.30;99.90;;;;;;4991312;28;20407;-75
2022/01/31 01:11:56;;;;;;;7.55;3.30;;;28.70;99.90;;;;;;4984030;28;20027;-73
2022/01/31 01:14:24;;;;;;;6.63;4.22;;;28.80;99.90;;;;;;4985716;28;20114;-76
2022/01/31 01:16:51;;;;;;;8.07;4.10;;;28.70;99.90;;;;;;4983841;28;20025;-72
2022/01/31 01:19:19;;;;;;;5.10;3.80;;;28.90;99.90;;;;;;4980482;28;20018;-74
2022/01/31 01:21:46;;;;;;;6.18;4.57;;;28.90;99.90;;;;;;4980830;28;20027;-73
2022/01/31 01:24:15;;;;;;;4.68;3.67;;;28.30;99.90;;;;;;4980599;28;20039;-73
2022/01/31 01:26:43;;;;;;;5.90;3.90;;;28.10;99.90;;;;;;4983428;28;20022;-73
2022/01/31 01:29:11;;;;;;;6.22;3.88;;;28.30;99.90;;;;;;4982477;28;20031;-73
2022/01/31 01:31:39;;;;;;;6.47;4.82;;;28.70;99.90;;;;;;4982356;28;20109;-74
2022/01/31 01:34:07;;;;;;;6.25;4.40;;;29.00;99.90;;;;;;4982510;28;20077;-76
2022/01/31 01:36:35;;;;;;;6.65;3.75;;;29.30;99.90;;;;;;4982177;28;20019;-73
2022/01/31 01:39:02;;;;;;;7.45;4.40;;;29.60;99.90;;;;;;4983622;28;20379;-75
2022/01/31 01:41:30;;;;;;;8.80;4.20;;;29.60;99.90;;;;;;4986739;28;20022;-74
2022/01/31 01:43:57;;;;;;;6.13;3.72;;;29.70;99.90;;;;;;4987277;28;20041;-72
2022/01/31 01:46:24;;;;;;;5.38;3.80;;;29.80;99.90;;;;;;4986641;28;20026;-72
2022/01/31 01:48:52;;;;;;;6.05;4.10;;;30.10;99.90;;;;;;4987263;28;20061;-72
2022/01/31 01:51:19;;;;;;;5.88;4.65;;;30.50;99.90;;;;;;4985655;28;20439;-73
2022/01/31 01:53:47;;;;;;;5.82;4.00;;;30.40;99.90;;;;;;4986960;28;20018;-72
2022/01/31 01:56:14;;;;;;;4.70;4.13;;;30.20;99.90;;;;;;4987074;28;20112;-72
2022/01/31 01:58:44;;;;;;;5.65;3.83;;;29.90;99.90;;;;;;4985384;28;20018;-72
2022/01/31 02:01:13;;;;;;;5.47;3.83;;;29.40;99.90;;;;;;4984376;28;20133;-73
2022/01/31 02:03:41;;;;;;;5.10;4.03;;;28.70;99.90;;;;;;4985836;28;20018;-72
2022/01/31 02:06:09;;;;;;;8.65;4.35;;;28.30;99.90;;;;;;4984656;28;20030;-72
2022/01/31 02:08:41;;;;;;;6.32;3.88;;;28.20;99.90;;;;;;4983739;28;20117;-72
2022/01/31 02:11:13;;;;;;;4.03;2.70;;;28.20;99.90;;;;;;4984815;28;20106;-72
2022/01/31 02:13:41;;;;;;;4.45;3.00;;;27.80;99.90;;;;;;4983922;28;20027;-72
2022/01/31 02:16:09;;;;;;;5.30;3.97;;;28.00;99.90;;;;;;4984532;28;20026;-72
2022/01/31 02:18:44;;;;;;;5.10;3.78;;;28.30;99.90;;;;;;4985058;28;20026;-72
2022/01/31 02:21:11;;;;;;;5.65;3.58;;;28.70;99.90;;;;;;4984997;28;20037;-73
2022/01/31 02:23:39;;;;;;;5.43;3.70;;;28.80;99.90;;;;;;4983326;28;20133;-73
2022/01/31 02:26:07;;;;;;;4.20;3.60;;;29.00;99.90;;;;;;4984847;28;20472;-73
2022/01/31 02:28:36;;;;;;;5.65;3.30;;;29.30;99.90;;;;;;4985040;28;20037;-73
2022/01/31 02:31:05;;;;;;;5.13;3.40;;;29.10;99.90;;;;;;4985313;28;20015;-73
2022/01/31 02:33:33;;;;;;;4.70;2.92;;;28.80;99.90;;;;;;4984876;28;20109;-73
2022/01/31 02:36:03;;;;;;;5.80;3.08;;;28.50;99.90;;;;;;4983228;28;20026;-73
2022/01/31 02:38:31;;;;;;;6.00;3.63;;;28.40;99.90;;;;;;4984021;28;20021;-73
2022/01/31 02:40:59;;;;;;;3.95;3.28;;;28.30;99.90;;;;;;4984913;28;20014;-73
2022/01/31 02:43:29;;;;;;;5.68;3.13;;;28.00;99.90;;;;;;4983593;28;20023;-73
2022/01/31 02:45:57;;;;;;;7.45;3.30;;;28.00;99.90;;;;;;4982969;28;20066;-73
2022/01/31 02:48:27;;;;;;;6.10;2.67;;;28.40;99.90;;;;;;4984653;28;20065;-73
2022/01/31 02:50:56;;;;;;;4.45;2.65;;;28.60;99.90;;;;;;4984633;28;20022;-73
2022/01/31 02:53:30;;;;;;;7.75;3.35;;;28.80;99.90;;;;;;4983071;28;20494;-73
2022/01/31 02:56:00;;;;;;;3.75;2.38;;;29.10;99.90;;;;;;4982958;28;20098;-73
2022/01/31 02:58:29;;;;;;;6.05;3.05;;;29.10;99.90;;;;;;4984281;28;20026;-73
2022/01/31 03:00:58;;;;;;;4.45;3.17;;;29.20;99.90;;;;;;4986149;28;20365;-74
2022/01/31 03:03:26;;;;;;;3.80;2.85;;;29.60;99.90;;;;;;4983288;28;20942;-73
2022/01/31 03:05:53;;;;;;;5.68;3.30;;;29.70;99.90;;;;;;4983415;28;20018;-73
2022/01/31 03:08:22;;;;;;;5.25;3.22;;;29.60;99.90;;;;;;4984576;28;20042;-73
2022/01/31 03:10:50;;;;;;;8.07;3.17;;;29.80;99.90;;;;;;4990556;28;20357;-74
2022/01/31 03:13:26;;;;;;;4.60;2.90;;;30.20;99.90;;;;;;4981703;28;20388;-74
2022/01/31 03:15:59;;;;;;;4.22;3.13;;;30.10;99.90;;;;;;4984834;28;20181;-74
2022/01/31 03:18:31;;;;;;;3.67;2.60;;;29.80;99.90;;;;;;4984277;28;20033;-74
2022/01/31 03:20:58;;;;;;;9.27;3.38;;;29.30;99.90;;;;;;4984612;28;20097;-73
2022/01/31 03:23:37;;;;;;;6.30;4.00;;;29.40;99.90;;;;;;4983836;28;20054;-74
2022/01/31 03:26:07;;;;;;;5.45;3.38;;;29.30;99.90;;;;;;4982308;28;20023;-74
2022/01/31 03:28:40;;;;;;;5.25;3.58;;;29.60;99.90;;;;;;4981401;28;20031;-73
2022/01/31 03:31:08;;;;;;;3.88;2.53;;;29.50;99.90;;;;;;4983902;28;20026;-72
2022/01/31 03:33:41;;;;;;;6.95;2.80;;;29.20;99.90;;;;;;4984862;28;20033;-74
2022/01/31 03:36:11;;;;;;;3.22;2.55;;;29.10;99.90;;;;;;4984588;28;20153;-72
2022/01/31 03:38:51;;;;;;;4.25;2.72;;;28.90;99.90;;;;;;4988809;28;20042;-72
2022/01/31 03:41:26;;;;;;;6.22;2.63;;;28.50;99.90;;;;;;4993588;28;20072;-72
2022/01/31 03:43:57;;;;;;;3.45;2.60;;;28.20;99.90;;;;;;4992315;28;20054;-72
2022/01/31 03:46:27;;;;;;;4.50;2.35;;;28.10;99.90;;;;;;4993352;28;20023;-72
2022/01/31 03:48:57;;;;;;;4.18;2.05;;;28.20;99.90;;;;;;4992097;28;20047;-71
2022/01/31 03:51:25;;;;;;;6.05;2.85;;;28.40;99.90;;;;;;4992154;28;20070;-72
2022/01/31 03:53:52;;;;;;;4.60;2.55;;;28.70;99.90;;;;;;4993540;28;20526;-72
2022/01/31 03:56:28;;;;;;;7.65;2.47;;;29.00;99.90;;;;;;4993266;28;20113;-72
2022/01/31 03:58:55;;;;;;;4.53;2.30;;;29.10;99.90;;;;;;4993525;28;20022;-73
2022/01/31 04:01:26;;;;;;;4.78;2.42;;;29.30;99.90;;;;;;4993303;28;20022;-72
2022/01/31 04:03:53;;;;;;;4.45;2.13;;;29.40;99.90;;;;;;4993419;28;20037;-72
2022/01/31 04:06:23;;;;;;;8.52;2.60;;;29.30;99.90;;;;;;4993381;28;20019;-72
2022/01/31 04:08:51;;;;;;;4.47;2.38;;;29.20;99.90;;;;;;4993368;28;20498;-72
2022/01/31 04:11:19;;;;;;;4.80;2.58;;;29.70;99.90;;;;;;4993394;28;20022;-72
2022/01/31 04:13:46;;;;;;;3.72;2.15;;;30.00;99.90;;;;;;4993403;28;20019;-72
2022/01/31 04:16:13;;;;;;;4.65;1.77;;;30.20;99.90;;;;;;4993214;28;20045;-73
2022/01/31 04:18:43;;;;;;;6.20;2.28;;;30.20;99.90;;;;;;4991915;28;20022;-72
2022/01/31 04:21:11;;;;;;;3.85;2.03;;;30.00;99.90;;;;;;4993554;28;20110;-72
2022/01/31 04:23:38;;;;;;;2.95;1.88;;;30.00;99.90;;;;;;4993430;28;20447;-72
2022/01/31 04:26:13;;;;;;;3.78;2.22;;;30.00;99.90;;;;;;4993385;28;20054;-72
2022/01/31 04:28:44;;;;;;;6.30;2.35;;;29.90;99.90;;;;;;4993317;28;20030;-72
2022/01/31 04:31:34;;;;;;;2.60;1.73;;;29.50;99.90;;;;;;4993432;28;20033;-72
2022/01/31 04:34:01;;;;;;;3.60;2.00;;;29.80;99.90;;;;;;4993135;28;20073;-73
2022/01/31 04:36:28;;;;;;;4.32;2.47;;;29.70;99.90;;;;;;4993320;28;20019;-71
2022/01/31 04:38:55;;;;;;;5.70;2.20;;;29.30;99.90;;;;;;4992862;28;20034;-71
2022/01/31 04:41:23;;;;;;;5.93;2.78;;;29.00;99.90;;;;;;4992236;28;20057;-72
2022/01/31 04:43:52;;;;;;;4.65;2.25;;;29.20;99.90;;;;;;4993468;28;20026;-72
2022/01/31 04:46:22;;;;;;;6.10;2.38;;;29.40;99.90;;;;;;4996312;28;20034;-72
2022/01/31 04:48:49;;;;;;;5.72;1.48;;;29.60;99.90;;;;;;4984694;28;20102;-73
2022/01/31 04:51:17;;;;;;;5.50;2.60;;;29.40;99.90;;;;;;4977034;28;20023;-72
2022/01/31 04:53:44;;;;;;;4.68;2.30;;;29.10;99.90;;;;;;4981459;28;20534;-71
2022/01/31 04:56:11;;;;;;;3.88;1.90;;;28.70;99.90;;;;;;4996362;28;20117;-72
2022/01/31 04:58:40;;;;;;;4.22;2.00;;;28.80;99.90;;;;;;4996476;28;20025;-72
2022/01/31 05:01:08;;;;;;;5.25;2.30;;;28.80;99.90;;;;;;4983664;28;20022;-72
2022/01/31 05:03:35;;;;;;;5.18;2.22;;;29.10;99.90;;;;;;4976810;28;20019;-72
2022/01/31 05:06:03;;;;;;;3.70;1.88;;;29.20;99.90;;;;;;4976785;28;20035;-72
2022/01/31 05:08:30;;;;;;;4.22;1.92;;;29.50;99.90;;;;;;4975519;28;20109;-73
2022/01/31 05:10:58;;;;;;;5.70;2.80;;;29.30;99.90;;;;;;4976651;28;20027;-73
2022/01/31 05:13:25;;;;;;;3.47;2.03;;;29.30;99.90;;;;;;4975225;28;20114;-71
2022/01/31 05:15:53;;;;;;;4.07;2.20;;;29.30;99.90;;;;;;4942285;28;20051;-71
2022/01/31 05:18:21;;;;;;;3.05;1.98;;;29.20;99.90;;;;;;4949976;28;20019;-72
2022/01/31 05:20:48;;;;;;;2.97;1.88;;;28.90;99.90;;;;;;4957207;28;20069;-72
2022/01/31 05:23:15;;;;;;;5.20;2.40;;;29.00;99.90;;;;;;4956705;28;20059;-72
2022/01/31 05:25:43;;;;;;;4.47;2.22;;;29.00;99.90;;;;;;4957323;28;20034;-72
2022/01/31 05:28:10;;;;;;;4.53;2.42;;;29.00;99.90;;;;;;4957215;28;20035;-71
2022/01/31 05:30:37;;;;;;;3.55;2.35;;;29.00;99.90;;;;;;4957436;28;20490;-71
2022/01/31 05:33:05;;;;;;;7.40;2.50;;;29.00;99.90;;;;;;4957078;28;20042;-72
2022/01/31 05:35:33;;;;;;;4.63;1.92;;;29.00;99.90;;;;;;4957027;28;20121;-72
2022/01/31 05:38:00;;;;;;;3.58;1.80;;;29.00;99.90;;;;;;4941861;28;20023;-71
2022/01/31 05:40:28;;;;;;;2.90;1.60;;;28.90;99.90;;;;;;4938189;29;20023;-71
2022/01/31 05:42:56;;;;;;;2.63;1.27;;;29.00;99.90;;;;;;4937683;28;20480;-71
2022/01/31 05:45:23;;;;;;;3.47;1.63;;;28.90;99.90;;;;;;4937869;29;20028;-71
2022/01/31 05:47:50;;;;;;;2.35;1.30;;;28.80;99.90;;;;;;4937670;29;20524;-71
2022/01/31 05:50:18;;;;;;;1.85;1.20;;;28.70;99.90;;;;;;4936358;29;20043;-71
2022/01/31 05:52:45;;;;;;;2.97;1.35;;;28.40;99.90;;;;;;4937458;28;20549;-71
2022/01/31 05:55:14;;;;;;;3.63;1.10;;;28.60;99.90;;;;;;4938023;28;20476;-71
2022/01/31 05:57:43;;;;;;;1.80;1.10;;;28.60;99.90;;;;;;4937689;28;20024;-71
2022/01/31 06:00:11;;;;;;;2.70;1.60;;;28.50;99.90;;;;;;4937411;29;20027;-71
2022/01/31 06:02:39;;;;;;;2.28;1.20;;;28.40;99.90;;;;;;4937460;29;20059;-71
2022/01/31 06:05:06;;;;;;;2.28;1.27;;;28.20;99.90;;;;;;4937446;28;20485;-71
2022/01/31 06:07:34;;;;;;;2.20;1.05;;;28.00;99.90;;;;;;4937391;29;20028;-71
2022/01/31 06:10:01;;;;;;;2.03;1.10;;;28.20;99.90;;;;;;4937340;29;20039;-71
2022/01/31 06:12:29;;;;;;;2.92;1.10;;;28.20;99.90;;;;;;4937294;29;20028;-72
2022/01/31 06:14:56;;;;;;;1.50;1.00;;;28.00;99.90;;;;;;4937001;29;20024;-72
2022/01/31 06:17:24;;;;;;;5.32;0.98;;;28.00;99.90;;;;;;4937133;29;20497;-73
2022/01/31 06:19:51;;;;;;;2.58;1.17;;;28.10;99.90;;;;;;4937054;29;20556;-72
2022/01/31 06:22:18;;;;;;;2.88;1.02;;;28.10;99.90;;;;;;4944164;28;20027;-72
2022/01/31 06:24:46;;;;;;;0.90;0.70;;;27.70;99.90;;;;;;4941842;28;20027;-71
2022/01/31 06:27:14;;;;;;;1.27;0.70;;;27.50;99.90;;;;;;4948482;28;20038;-72
2022/01/31 06:29:41;;;;;;;2.90;1.17;;;27.50;99.90;;;;;;4955954;28;20477;-71
2022/01/31 06:32:11;;;;;;;3.40;0.90;;;27.90;99.90;;;;;;4955865;28;20023;-71
2022/01/31 06:34:39;;;;;;;1.83;0.70;;;27.80;99.90;;;;;;4955693;28;20035;-71
2022/01/31 06:37:06;;;;;;;1.98;1.15;;;27.80;99.90;;;;;;4955903;28;20103;-71
2022/01/31 06:39:33;;;;;;;2.58;0.80;;;28.00;99.90;;;;;;4949553;28;20153;-71
2022/01/31 06:42:01;;;;;;;1.85;1.02;;;28.00;99.90;;;;;;4945587;29;20106;-71
2022/01/31 06:44:28;;;;;;;5.00;0.80;;;28.00;99.90;;;;;;4945582;28;20028;-72
2022/01/31 06:46:55;;;;;;;1.95;0.77;;;28.00;99.90;;;;;;4953532;29;20070;-71
2022/01/31 06:49:23;;;;;;;0.98;0.88;;;28.10;99.90;;;;;;4947688;29;20047;-72
2022/01/31 06:51:50;;;;;;;1.67;0.65;;;28.00;99.90;;;;;;4945123;29;20023;-72
2022/01/31 06:54:17;;;;;;;2.63;1.13;;;28.10;99.90;;;;;;4944991;28;20132;-71
2022/01/31 06:56:45;;;;;;;1.42;0.60;;;27.80;99.90;;;;;;4946425;29;20057;-71
2022/01/31 06:59:12;;;;;;;1.98;0.68;;;27.90;99.90;;;;;;4941496;28;20545;-71
2022/01/31 07:01:39;;;;;;;1.38;0.60;;;27.30;99.90;;;;;;4935174;29;20059;-71
2022/01/31 07:04:07;;;;;;;1.13;0.60;;;27.10;99.90;;;;;;4935832;29;20071;-72
2022/01/31 07:06:34;;;;;;;1.35;1.00;;;26.90;99.90;;;;;;4936284;29;20058;-72
2022/01/31 07:09:02;;;;;;;1.58;0.85;;;26.70;99.90;;;;;;4936176;29;20036;-71
2022/01/31 07:11:34;;;;;;;1.88;0.75;;;26.60;99.90;;;;;;4936277;29;20039;-72
2022/01/31 07:14:05;;;;;;;1.30;0.88;;;26.60;99.90;;;;;;4936003;28;20063;-72
2022/01/31 07:16:34;;;;;;;2.30;0.95;;;26.70;99.90;;;;;;4936582;29;20024;-72
2022/01/31 07:19:08;;;;;;;1.70;0.77;;;26.90;99.90;;;;;;4936363;28;20539;-72
2022/01/31 07:21:47;;;;;;;1.70;0.80;;;27.10;99.90;;;;;;4936021;29;20032;-71
2022/01/31 07:24:24;;;;;;;1.25;0.50;;;27.30;99.90;;;;;;4935792;29;20113;-72
2022/01/31 07:26:52;;;;;;;1.52;0.70;;;27.50;99.90;;;;;;4936171;29;20406;-72
2022/01/31 07:29:21;;;;;;;2.08;0.80;;;27.70;99.90;;;;;;4936001;29;20072;-72
2022/01/31 07:31:50;;;;;;;0.82;0.50;;;28.00;99.90;;;;;;4936010;29;20034;-72
2022/01/31 07:34:18;;;;;;;2.80;0.73;;;28.20;99.90;;;;;;4935532;28;20370;-72
2022/01/31 07:36:46;;;;;;;3.85;0.70;;;28.50;99.90;;;;;;4936074;29;20064;-71
2022/01/31 07:39:14;;;;;;;1.92;0.50;;;28.40;99.90;;;;;;4936057;28;20488;-69
2022/01/31 07:41:42;;;;;;;3.17;0.57;;;28.10;99.90;;;;;;4936210;28;20032;-70
2022/01/31 07:44:10;;;;;;;2.42;0.60;;;28.10;99.90;;;;;;4936122;28;20106;-70
2022/01/31 07:46:38;;;;;;;3.40;0.47;;;28.00;99.90;;;;;;4936181;28;20065;-70
2022/01/31 07:49:07;;;;;;;1.55;0.52;;;27.90;99.90;;;;;;4935910;29;20052;-69
2022/01/31 07:51:38;;;;;;;1.15;0.45;;;27.50;99.90;;;;;;4935703;29;20469;-70
2022/01/31 07:54:06;;;;;;;1.80;0.82;;;26.90;99.90;;;;;;4935894;28;20111;-69
2022/01/31 07:56:34;;;;;;;2.13;0.63;;;26.50;99.90;;;;;;4936100;28;20027;-70
2022/01/31 07:59:01;;;;;;;0.63;0.40;;;26.20;99.90;;;;;;4936103;28;20060;-70
2022/01/31 08:01:29;;;;;;;1.90;0.60;;;26.10;99.90;;;;;;4935767;28;20107;-70
2022/01/31 08:03:56;;;;;;;1.50;0.60;;;26.00;99.90;;;;;;4935688;28;20038;-69
2022/01/31 08:06:23;;;;;;;0.98;0.43;;;25.90;99.90;;;;;;4935969;29;20024;-70
2022/01/31 08:08:51;;;;;;;2.50;0.80;;;25.80;99.90;;;;;;4935850;29;20035;-71
2022/01/31 08:11:18;;;;;;;2.38;0.60;;;25.80;99.90;;;;;;4935906;29;20030;-69
2022/01/31 08:13:46;;;;;;;1.25;0.52;;;25.70;99.90;;;;;;4947300;29;20064;-70
2022/01/31 08:16:15;;;;;;;2.10;0.63;;;25.40;99.90;;;;;;4955131;28;20473;-70
2022/01/31 08:18:46;;;;;;;7.22;0.50;;;25.30;99.90;;;;;;4956886;28;20054;-69
2022/01/31 08:21:15;;;;;;;1.15;0.50;;;25.20;99.90;;;;;;4956396;28;20047;-70
2022/01/31 08:23:44;;;;;;;1.55;0.68;;;25.10;99.90;;;;;;4956417;28;20497;-69
2022/01/31 08:26:16;;;;;;;2.42;0.60;;;25.10;99.90;;;;;;4957285;28;20031;-70
2022/01/31 08:31:28;;;;;;;1.67;0.70;;;25.00;99.90;;;;;;4957503;28;20572;-70
2022/01/31 08:36:26;;;;;;;1.50;0.55;;;24.90;99.90;;;;;;4957342;28;20016;-70
2022/01/31 08:38:54;;;;;;;2.28;0.40;;;25.00;99.90;;;;;;4956910;28;20488;-70
2022/01/31 08:41:23;;;;;;;0.75;0.38;;;24.90;99.90;;;;;;4956479;28;20031;-69
2022/01/31 08:43:52;;;;;;;2.47;0.50;;;24.90;99.90;;;;;;4957107;28;20362;-70
2022/01/31 08:46:19;;;;;;;1.50;0.63;;;24.90;99.90;;;;;;4957290;28;20469;-70
2022/01/31 08:48:47;;;;;;;1.17;0.38;;;24.80;99.90;;;;;;4957035;28;20385;-68
2022/01/31 08:51:15;;;;;;;1.13;0.40;;;24.70;99.90;;;;;;4957254;28;20102;-69
2022/01/31 08:53:43;;;;;;;0.57;0.30;;;24.60;99.90;;;;;;4955627;28;20560;-69
2022/01/31 08:56:13;;;;;;;2.85;0.77;;;24.60;99.90;;;;;;4955791;28;20469;-70
2022/01/31 08:58:45;;;;;;;1.73;0.57;;;24.50;99.90;;;;;;4956289;28;20489;-70
2022/01/31 09:01:17;;;;;;;1.52;0.50;;;24.40;99.90;;;;;;4956204;28;20031;-69
2022/01/31 09:06:24;;;;;;;2.25;0.50;;;24.30;99.90;;;;;;4953885;28;20034;-69
2022/01/31 09:08:52;;;;;;;1.65;0.60;;;24.20;99.90;;;;;;4953436;28;20109;-69
2022/01/31 09:11:20;;;;;;;2.22;0.63;;;24.20;99.90;;;;;;4954494;28;20098;-68
2022/01/31 09:13:47;;;;;;;2.20;0.70;;;24.20;99.90;;;;;;4955764;28;20098;-69
2022/01/31 09:16:15;;;;;;;2.47;0.80;;;24.10;99.90;;;;;;4956769;28;20055;-70
2022/01/31 09:18:43;;;;;;;2.80;0.55;;;24.10;99.90;;;;;;4942203;28;20023;-69
2022/01/31 09:21:11;;;;;;;1.85;0.50;;;24.00;99.90;;;;;;4951493;28;20031;-69
2022/01/31 09:23:39;;;;;;;3.15;0.82;;;24.00;99.90;;;;;;4955217;29;20444;-69
2022/01/31 09:26:06;;;;;;;2.28;0.80;;;24.00;99.90;;;;;;4955560;28;20037;-70
2022/01/31 09:28:36;;;;;;;1.27;0.47;;;23.90;99.90;;;;;;4955656;28;20093;-70
2022/01/31 09:31:04;;;;;;;2.42;0.55;;;23.90;99.90;;;;;;4956745;28;20032;-69
2022/01/31 09:33:32;;;;;;;1.65;0.65;;;23.90;99.90;;;;;;4957147;28;20027;-69
2022/01/31 09:36:00;;;;;;;4.85;0.60;;;23.90;99.90;;;;;;4957077;28;20026;-70
2022/01/31 09:38:28;;;;;;;2.70;0.45;;;23.90;99.90;;;;;;4957152;28;20035;-69
2022/01/31 09:40:56;;;;;;;1.25;0.50;;;23.90;99.90;;;;;;4956958;28;20464;-70
2022/01/31 09:43:57;;;;;;;3.80;0.52;;;23.80;99.90;;;;;;4956914;28;20053;-69
2022/01/31 09:48:58;;;;;;;1.67;0.85;;;23.70;99.90;;;;;;4956592;28;20079;-69
2022/01/31 09:51:27;;;;;;;2.33;0.60;;;23.70;99.90;;;;;;4956754;28;20385;-69
2022/01/31 09:54:01;;;;;;;1.92;0.60;;;23.70;99.90;;;;;;4956749;28;20110;-70
2022/01/31 09:56:33;;;;;;;1.35;0.55;;;23.70;99.90;;;;;;4956842;28;20163;-69
2022/01/31 09:59:03;;;;;;;3.33;1.05;;;23.70;99.90;;;;;;4956714;28;20089;-69
2022/01/31 10:01:37;;;;;;;1.85;0.55;;;23.60;99.90;;;;;;4956489;28;20027;-70
2022/01/31 10:04:19;;;;;;;4.78;0.55;;;23.60;99.90;;;;;;4956124;28;20481;-69
2022/01/31 10:06:55;;;;;;;2.28;0.60;;;23.60;99.90;;;;;;4956540;28;20043;-69
2022/01/31 10:09:25;;;;;;;3.00;0.68;;;23.50;99.90;;;;;;4956350;28;20037;-69
2022/01/31 10:12:08;;;;;;;3.00;0.73;;;23.50;99.90;;;;;;4956317;28;20100;-70
2022/01/31 10:17:37;;;;;;;1.98;0.63;;;23.40;99.90;;;;;;4955440;29;20046;-67
2022/01/31 10:20:25;;;;;;;3.90;0.82;;;23.40;99.90;;;;;;4956264;28;20034;-68
2022/01/31 10:22:53;;;;;;;2.88;0.60;;;23.40;99.90;;;;;;4956178;28;20473;-68
2022/01/31 10:25:23;;;;;;;2.97;0.65;;;23.40;99.90;;;;;;4955528;28;20102;-69
2022/01/31 10:27:53;;;;;;;3.20;0.93;;;23.40;99.90;;;;;;4956121;28;20109;-68
2022/01/31 10:30:24;;;;;;;1.17;0.75;;;23.40;99.90;;;;;;4953623;28;20027;-69
2022/01/31 10:32:54;;;;;;;1.95;0.60;;;23.40;99.90;;;;;;4949349;28;20030;-67
2022/01/31 10:35:24;;;;;;;1.00;0.50;;;23.40;99.90;;;;;;4947596;28;20106;-67
2022/01/31 10:38:03;;;;;;;2.40;0.40;;;23.30;99.90;;;;;;4944582;28;20175;-70
2022/01/31 10:52:12;;;;;;;1.60;0.80;;;23.30;99.90;;;;;;4954658;29;20078;-67
2022/01/31 10:57:05;;;;;;;2.08;0.47;;;23.30;99.90;;;;;;4954416;28;20098;-68
2022/01/31 10:59:42;;;;;;;1.25;0.50;;;23.20;99.90;;;;;;4954933;28;20105;-70
2022/01/31 11:02:20;;;;;;;0.68;0.45;;;23.30;99.90;;;;;;4954911;28;20038;-70
2022/01/31 11:04:49;;;;;;;4.60;0.52;;;23.20;99.90;;;;;;4955793;28;20028;-69
2022/01/31 11:07:23;;;;;;;2.58;0.85;;;23.20;99.90;;;;;;4955097;28;20027;-70
2022/01/31 11:09:52;;;;;;;2.80;0.68;;;23.20;99.90;;;;;;4955547;28;20098;-67
2022/01/31 11:12:23;;;;;;;2.92;0.73;;;23.20;99.90;;;;;;4955033;28;20126;-69
2022/01/31 11:14:53;;;;;;;4.40;0.88;;;23.30;99.90;;;;;;4955481;28;20027;-68
2022/01/31 11:17:21;;;;;;;1.10;0.63;;;23.30;99.90;;;;;;4955632;28;20066;-70
2022/01/31 11:20:01;;;;;;;2.55;1.20;;;23.30;99.90;;;;;;4955571;28;20028;-68
2022/01/31 11:22:34;;;;;;;1.58;0.52;;;23.30;99.90;;;;;;4955183;28;20035;-68
2022/01/31 11:25:08;;;;;;;2.95;0.88;;;23.20;99.90;;;;;;4955366;28;20042;-69
2022/01/31 11:27:39;;;;;;;1.08;0.35;;;23.20;99.90;;;;;;4954861;28;20039;-70
2022/01/31 11:30:08;;;;;;;1.77;0.60;;;23.10;99.90;;;;;;4955377;28;20054;-67
2022/01/31 11:32:38;;;;;;;1.60;0.70;;;23.20;99.90;;;;;;4955249;28;20019;-69
2022/01/31 11:35:07;;;;;;;1.27;0.45;;;23.30;99.90;;;;;;4946639;28;20099;-67
2022/01/31 11:37:36;;;;;;;2.83;0.70;;;23.20;99.90;;;;;;4947653;28;20488;-68
2022/01/31 11:40:07;;;;;;;2.10;0.55;;;23.20;99.90;;;;;;4946553;28;20032;-70
2022/01/31 11:42:36;;;;;;;0.73;0.47;;;23.20;99.90;;;;;;4939477;29;20107;-69
2022/01/31 11:45:31;;;;;;;1.25;0.70;;;23.30;99.90;;;;;;4943208;29;20114;-69
2022/01/31 11:48:03;;;;;;;2.95;0.30;;;23.30;99.90;;;;;;4943403;29;20039;-68
2022/01/31 11:50:32;;;;;;;3.92;0.60;;;23.30;99.90;;;;;;4945746;28;20027;-70
2022/01/31 11:53:03;;;;;;;0.60;0.30;;;23.30;99.90;;;;;;4947319;29;20020;-69
2022/01/31 11:55:35;;;;;;;2.72;0.45;;;23.20;99.90;;;;;;4946400;29;20051;-70
2022/01/31 11:58:07;;;;;;;3.08;0.77;;;23.20;99.90;;;;;;4945023;28;20027;-71
2022/01/31 12:00:38;;;;;;;2.75;0.70;;;23.10;99.90;;;;;;4946214;28;20026;-70
2022/01/31 12:03:09;;;;;;;1.45;0.43;;;23.10;99.90;;;;;;4947345;28;20164;-70
2022/01/31 12:05:40;;;;;;;1.70;0.57;;;23.00;99.90;;;;;;4947410;29;20074;-69
2022/01/31 12:08:19;;;;;;;1.48;0.82;;;23.00;99.90;;;;;;4946996;29;20043;-69
2022/01/31 12:10:57;;;;;;;4.45;0.70;;;22.90;99.90;;;;;;4944437;28;20024;-70
2022/01/31 12:13:40;;;;;;;3.35;0.50;;;22.90;99.90;;;;;;4952432;29;20031;-70
2022/01/31 12:16:30;;;;;;;1.83;0.75;;;22.90;99.90;;;;;;4944931;28;20036;-68
2022/01/31 12:19:17;;;;;;;0.95;0.52;;;22.90;99.90;;;;;;4946043;28;20392;-70
2022/01/31 12:22:00;;;;;;;2.65;0.77;;;22.80;99.90;;;;;;4944130;28;20046;-70
2022/01/31 12:24:32;;;;;;;2.63;0.50;;;22.80;99.90;;;;;;4946614;29;20528;-69
2022/01/31 12:27:26;;;;;;;1.38;0.40;;;22.80;99.90;;;;;;4946677;28;20039;-71
2022/01/31 12:30:01;;;;;;;1.38;0.57;;;22.80;99.90;;;;;;4942367;28;20038;-71
2022/01/31 12:32:35;;;;;;;;;;;22.80;99.90;;;;;;4943679;28;20026;-71
2022/01/31 12:35:09;;;;;;;3.22;0.47;;;22.70;99.90;;;;;;4943759;29;19911;-70
2022/01/31 12:37:41;;;;;;;1.65;0.55;;;22.70;99.90;;;;;;4947124;29;20081;-69
2022/01/31 12:40:18;;;;;;;6.35;1.17;;;22.60;99.90;;;;;;4944748;28;20125;-69
2022/01/31 12:45:39;;;;;;;5.13;0.73;;;22.50;99.90;;;;;;4943732;29;20051;-69
2022/01/31 12:50:59;;;;;;;2.40;0.57;;;22.50;99.90;;;;;;4941798;29;20107;-69
2022/01/31 12:53:30;;;;;;;0.85;0.43;;;22.50;99.90;;;;;;4945512;28;20481;-69
2022/01/31 12:56:20;;;;;;;3.38;1.02;;;22.50;99.90;;;;;;4951840;28;20019;-70
2022/01/31 12:58:59;;;;;;;2.30;0.50;;;22.50;99.90;;;;;;4948713;29;20094;-70
2022/01/31 13:01:28;;;;;;;5.53;1.10;;;22.40;99.90;;;;;;4939570;28;20473;-70
2022/01/31 13:04:04;;;;;;;2.17;0.52;;;22.40;99.90;;;;;;4952569;28;20011;-70
2022/01/31 13:06:44;;;;;;;1.80;0.60;;;22.40;99.90;;;;;;4952391;28;20027;-70
2022/01/31 13:09:22;;;;;;;1.55;0.45;;;22.50;99.90;;;;;;4945324;29;20171;-71
2022/01/31 13:12:11;;;;;;;5.53;1.15;;;22.40;99.90;;;;;;4953793;29;20023;-69
2022/01/31 13:14:49;;;;;;;1.83;0.70;;;22.40;99.90;;;;;;4957442;28;20074;-70
2022/01/31 13:17:23;;;;;;;0.85;0.40;;;22.30;99.90;;;;;;4957706;28;20023;-70
2022/01/31 13:20:00;;;;;;;1.38;0.55;;;22.30;99.90;;;;;;4957334;28;20106;-71
2022/01/31 13:22:37;;;;;;;1.08;0.60;;;22.30;99.90;;;;;;4971958;28;20496;-70
2022/01/31 13:25:13;;;;;;;5.82;0.77;;;22.40;99.90;;;;;;4957220;28;20049;-71
2022/01/31 13:27:44;;;;;;;1.40;0.60;;;22.40;99.90;;;;;;4957629;28;20022;-68
2022/01/31 13:30:17;;;;;;;2.65;0.80;;;22.30;99.90;;;;;;4957394;28;20131;-70
2022/01/31 13:32:47;;;;;;;2.92;0.65;;;22.20;99.90;;;;;;4957290;28;20030;-71
2022/01/31 13:35:20;;;;;;;2.03;0.60;;;22.20;99.90;;;;;;4957797;29;20369;-71